Time;durP1;ratioP1;P1;durP2;ratioP2;P2;SDS_P1;SDS_P2;PMS_P1;PMS_P2;Temp;Humidity;BMP_temperature;BMP_pressure;BME280_temperature;BME280_humidity;BME280_pressure;Samples;Min_cycle;Max_cycle;Signal;HPM_P1;HPM_P2
2023/03/05 00:01:43;;;;;;;;;83.00;65.33;;;;;5.80;51.68;99155.16;5034908;28;9007;-78
2023/03/05 00:04:15;;;;;;;;;80.25;61.75;;;;;5.80;51.23;99159.53;5035916;28;9008;-79
2023/03/05 00:06:44;;;;;;;;;79.00;59.50;;;;;5.56;52.32;99160.56;5052750;28;8852;-78
2023/03/05 00:09:13;;;;;;;;;79.25;62.75;;;;;5.70;51.92;99159.59;5069581;28;9707;-77
2023/03/05 00:11:42;;;;;;;;;77.50;62.50;;;;;5.73;51.41;99159.56;5053623;28;8820;-76
2023/03/05 00:14:11;;;;;;;;;75.25;59.25;;;;;5.54;51.92;99163.19;5052625;28;8852;-78
2023/03/05 00:16:41;;;;;;;;;81.75;59.50;;;;;5.65;51.68;99170.94;5052208;28;8864;-77
2023/03/05 00:19:10;;;;;;;;;73.00;56.50;;;;;5.70;51.73;99157.00;5051752;28;8849;-77
2023/03/05 00:21:41;;;;;;;;;74.00;58.75;;;;;5.84;51.81;99150.78;5051423;28;8837;-77
2023/03/05 00:24:13;;;;;;;;;76.75;58.25;;;;;5.97;50.92;99154.19;5049487;28;8857;-76
2023/03/05 00:26:42;;;;;;;;;74.00;60.00;;;;;6.02;50.43;99148.03;5048682;28;8930;-79
2023/03/05 00:29:14;;;;;;;;;73.75;58.75;;;;;5.92;51.11;99148.97;5047478;28;8849;-77
2023/03/05 00:31:46;;;;;;;;;79.75;61.00;;;;;6.09;50.80;99148.84;5048839;28;8852;-77
2023/03/05 00:34:17;;;;;;;;;68.25;55.75;;;;;6.23;50.80;99140.91;5065308;28;8974;-77
2023/03/05 00:36:49;;;;;;;;;76.75;61.75;;;;;5.87;50.48;99142.97;5049785;28;8848;-76
2023/03/05 00:39:20;;;;;;;;;79.50;62.25;;;;;5.67;51.77;99143.09;5058922;28;9537;-76
2023/03/05 00:41:49;;;;;;;;;79.75;61.75;;;;;5.34;52.65;99148.53;5029720;28;8871;-77
2023/03/05 00:44:18;;;;;;;;;82.25;61.00;;;;;5.11;53.27;99143.44;5028606;28;8953;-76
2023/03/05 00:46:47;;;;;;;;;79.25;59.50;;;;;4.31;55.48;99138.50;5039275;28;8963;-76
2023/03/05 00:49:16;;;;;;;;;73.25;58.00;;;;;4.35;56.61;99134.16;5049229;28;8865;-79
2023/03/05 00:51:45;;;;;;;;;74.50;57.50;;;;;4.40;56.07;99144.56;5031527;28;8874;-78
2023/03/05 00:54:14;;;;;;;;;79.50;60.75;;;;;4.96;54.23;99146.09;5045015;28;8847;-77
2023/03/05 00:56:43;;;;;;;;;74.00;59.50;;;;;4.29;56.33;99139.38;5061136;28;8862;-78
2023/03/05 00:59:12;;;;;;;;;77.00;57.00;;;;;4.00;56.82;99140.28;5066309;28;8867;-77
2023/03/05 01:01:41;;;;;;;;;80.25;61.25;;;;;4.13;56.80;99133.31;5089201;28;8826;-76
2023/03/05 01:04:10;;;;;;;;;77.75;61.50;;;;;3.62;58.36;99150.66;5087057;28;8887;-76
2023/03/05 01:06:41;;;;;;;;;74.25;56.25;;;;;3.31;59.49;99156.66;5069992;28;8838;-78
2023/03/05 01:09:10;;;;;;;;;84.00;63.50;;;;;3.43;59.01;99147.19;5069900;28;9719;-77
2023/03/05 01:11:40;;;;;;;;;72.00;58.50;;;;;3.38;59.41;99144.56;5070070;28;8834;-76
2023/03/05 01:14:09;;;;;;;;;80.75;64.00;;;;;3.27;60.53;99146.25;5070099;28;8862;-77
2023/03/05 01:16:38;;;;;;;;;84.75;63.75;;;;;3.37;60.20;99140.19;5086660;28;8845;-77
2023/03/05 01:19:07;;;;;;;;;80.25;63.75;;;;;3.91;58.23;99135.94;5048837;28;8836;-77
2023/03/05 01:21:36;;;;;;;;;82.50;64.25;;;;;3.51;58.73;99135.94;5066897;28;8847;-78
2023/03/05 01:24:06;;;;;;;;;80.75;63.75;;;;;3.28;59.62;99138.47;5034710;28;8864;-76
2023/03/05 01:26:35;;;;;;;;;82.25;65.00;;;;;3.15;60.48;99147.09;5049938;28;8855;-79
2023/03/05 01:29:05;;;;;;;;;78.50;62.00;;;;;2.82;60.73;99143.50;5000759;28;9605;-77
2023/03/05 01:31:34;;;;;;;;;78.75;63.50;;;;;3.03;60.55;99144.44;5029654;28;8985;-78
2023/03/05 01:34:03;;;;;;;;;83.50;63.00;;;;;3.17;59.56;99140.19;5010647;28;8848;-77
2023/03/05 01:36:33;;;;;;;;;82.50;63.25;;;;;2.69;60.47;99152.09;5048350;28;8881;-75
2023/03/05 01:39:02;;;;;;;;;85.33;66.00;;;;;2.71;60.76;99152.97;5054254;28;9606;-76
2023/03/05 01:41:32;;;;;;;;;87.50;67.00;;;;;2.79;60.40;99141.78;5072605;28;8961;-77
2023/03/05 01:44:01;;;;;;;;;86.00;68.33;;;;;2.84;59.66;99140.94;5039322;28;8875;-78
2023/03/05 01:46:35;;;;;;;;;84.00;62.75;;;;;2.75;59.85;99147.81;5039637;28;8941;-77
2023/03/05 01:49:11;;;;;;;;;82.50;62.75;;;;;2.75;60.26;99129.66;5056550;28;9085;-77
2023/03/05 01:51:44;;;;;;;;;83.75;64.25;;;;;3.00;59.50;99132.34;5073101;28;9009;-77
2023/03/05 01:54:16;;;;;;;;;75.00;60.00;;;;;2.89;59.38;99136.63;5034844;28;8862;-77
2023/03/05 01:56:47;;;;;;;;;81.00;65.33;;;;;2.76;59.61;99133.97;5056581;28;9030;-76
2023/03/05 01:59:17;;;;;;;;;85.00;63.33;;;;;2.64;59.66;99130.44;5023901;28;9097;-76
2023/03/05 02:01:51;;;;;;;;;83.67;67.33;;;;;2.57;60.06;99127.84;5006715;28;9111;-76
2023/03/05 02:04:24;;;;;;;;;81.00;65.00;;;;;2.58;60.31;99128.69;5072463;28;9247;-77
2023/03/05 02:06:53;;;;;;;;;80.00;65.00;;;;;2.92;59.04;99128.84;4990407;28;9154;-77
2023/03/05 02:09:22;;;;;;;;;82.00;64.33;;;;;2.68;59.17;99127.88;5038278;28;9342;-78
2023/03/05 02:11:52;;;;;;;;;86.00;67.00;;;;;2.96;58.07;99128.00;5084103;28;9078;-78
2023/03/05 02:14:23;;;;;;;;;81.00;60.33;;;;;2.87;59.10;99122.78;5000710;28;8931;-78
2023/03/05 02:16:53;;;;;;;;;85.00;65.00;;;;;3.08;57.55;99124.56;5035261;28;9006;-78
2023/03/05 02:19:22;;;;;;;;;81.33;63.33;;;;;3.07;57.61;99120.22;5060995;28;8949;-77
2023/03/05 02:21:52;;;;;;;;;76.50;61.00;;;;;3.46;56.42;99116.88;5070356;28;8938;-78
2023/03/05 02:24:35;;;;;;;;;79.00;62.00;;;;;3.69;54.76;99119.47;5086109;28;8864;-76
2023/03/05 02:27:06;;;;;;;;;79.00;62.50;;;;;3.83;54.69;99116.91;5037107;28;9024;-76
2023/03/05 02:29:40;;;;;;;;;77.25;60.00;;;;;3.36;54.70;99128.09;5053781;28;8857;-77
2023/03/05 02:32:09;;;;;;;;;74.25;58.50;;;;;2.69;56.45;99128.75;5081442;28;8842;-75
2023/03/05 02:34:38;;;;;;;;;76.25;60.00;;;;;2.82;55.26;99125.34;5074258;28;8858;-77
2023/03/05 02:37:09;;;;;;;;;61.50;48.25;;;;;3.08;54.64;99128.03;5055538;28;8944;-77
2023/03/05 02:39:39;;;;;;;;;73.75;58.00;;;;;3.37;52.83;99128.09;5068227;28;10034;-78
2023/03/05 02:42:09;;;;;;;;;71.50;54.00;;;;;3.69;52.78;99131.63;5070656;28;8868;-77
2023/03/05 02:44:38;;;;;;;;;70.25;57.00;;;;;3.82;52.06;99125.53;5004227;28;8840;-76
2023/03/05 02:47:07;;;;;;;;;66.00;53.50;;;;;4.02;51.17;99122.06;5063103;28;8868;-78
2023/03/05 02:49:36;;;;;;;;;73.50;55.00;;;;;4.10;50.09;99120.34;5050881;28;9580;-76
2023/03/05 02:52:06;;;;;;;;;68.25;54.75;;;;;4.30;50.14;99122.88;5070494;28;8880;-77
2023/03/05 02:54:36;;;;;;;;;68.25;55.75;;;;;4.30;50.49;99112.47;5066687;28;9019;-76
2023/03/05 02:57:05;;;;;;;;;69.75;56.25;;;;;4.48;50.16;99120.22;5050600;28;8989;-75
2023/03/05 02:59:34;;;;;;;;;72.50;59.00;;;;;4.53;49.96;99122.84;5083648;28;8930;-75
2023/03/05 03:02:03;;;;;;;;;72.50;57.00;;;;;4.33;49.57;99120.28;5067097;28;8868;-76
2023/03/05 03:04:31;;;;;;;;;69.00;55.00;;;;;4.32;49.47;99124.63;5083616;28;8875;-78
2023/03/05 03:07:00;;;;;;;;;70.25;56.75;;;;;4.13;49.73;99123.78;5050178;28;8857;-78
2023/03/05 03:09:29;;;;;;;;;65.75;50.75;;;;;4.08;49.65;99125.53;5066646;28;8885;-78
2023/03/05 03:11:59;;;;;;;;;72.75;56.00;;;;;4.20;49.26;99121.19;5083457;28;8874;-78
2023/03/05 03:14:31;;;;;;;;;64.25;51.75;;;;;4.06;48.55;99129.88;5033629;28;8851;-76
2023/03/05 03:16:59;;;;;;;;;64.75;53.25;;;;;3.96;48.96;99126.41;5029772;28;8847;-77
2023/03/05 03:19:28;;;;;;;;;63.50;53.25;;;;;3.78;49.59;99131.63;5051245;28;8868;-77
2023/03/05 03:21:57;;;;;;;;;64.50;50.25;;;;;3.86;48.97;99126.41;5068654;28;8836;-75
2023/03/05 03:24:26;;;;;;;;;65.25;48.25;;;;;3.51;50.17;99132.47;5051419;28;8852;-77
2023/03/05 03:26:55;;;;;;;;;62.50;48.75;;;;;3.58;49.60;99134.19;5051810;28;9432;-77
2023/03/05 03:29:25;;;;;;;;;64.00;53.25;;;;;3.16;51.43;99126.31;5057801;28;8854;-77
2023/03/05 03:31:54;;;;;;;;;67.50;53.75;;;;;3.18;51.34;99135.00;5071941;28;8915;-75
2023/03/05 03:34:22;;;;;;;;;60.50;50.25;;;;;3.42;50.44;99137.66;5088345;28;8849;-78
2023/03/05 03:36:52;;;;;;;;;70.00;55.50;;;;;3.02;51.88;99156.56;5071490;28;8852;-76
2023/03/05 03:39:22;;;;;;;;;65.00;52.75;;;;;2.54;53.69;99164.16;5071394;28;8845;-78
2023/03/05 03:41:53;;;;;;;;;68.75;56.25;;;;;2.15;55.11;99170.81;5078456;28;8839;-77
2023/03/05 03:44:22;;;;;;;;;67.00;53.75;;;;;2.42;54.82;99164.06;5074415;28;8883;-76
2023/03/05 03:46:53;;;;;;;;;64.50;51.50;;;;;2.32;55.29;99172.66;5074747;28;8938;-77
2023/03/05 03:49:24;;;;;;;;;54.75;45.50;;;;;2.22;53.26;99166.53;5071044;28;8846;-77
2023/03/05 03:51:54;;;;;;;;;62.75;45.50;;;;;1.11;55.47;99175.06;5050152;28;8852;-75
2023/03/05 03:54:23;;;;;;;;;67.00;52.75;;;;;1.22;55.78;99178.63;5049081;28;8849;-74
2023/03/05 03:56:52;;;;;;;;;66.00;52.50;;;;;1.46;55.28;99180.59;5049068;28;8868;-77
2023/03/05 03:59:21;;;;;;;;;66.25;51.75;;;;;1.35;55.50;99174.41;5046947;28;8965;-75
2023/03/05 04:01:50;;;;;;;;;65.25;50.25;;;;;1.10;56.40;99176.75;5050441;28;8841;-77
2023/03/05 04:04:20;;;;;;;;;65.25;51.50;;;;;0.98;57.34;99179.22;5050018;28;8856;-74
2023/03/05 04:06:49;;;;;;;;;52.50;47.75;;;;;1.05;56.31;99175.84;5065588;28;8837;-76
2023/03/05 04:09:18;;;;;;;;;64.00;52.25;;;;;0.84;57.33;99184.16;5050071;28;8877;-78
2023/03/05 04:11:47;;;;;;;;;65.25;51.75;;;;;0.74;57.57;99180.59;5065095;28;8945;-75
2023/03/05 04:14:15;;;;;;;;;40.75;33.50;;;;;0.55;56.80;99176.91;5065214;28;8873;-77
2023/03/05 04:16:44;;;;;;;;;52.50;46.00;;;;;0.63;56.53;99179.59;5065213;28;8952;-76
2023/03/05 04:19:13;;;;;;;;;52.50;44.50;;;;;0.60;56.57;99179.56;4999929;28;8925;-77
2023/03/05 04:21:43;;;;;;;;;41.00;38.25;;;;;0.56;56.34;99175.19;5028660;28;8882;-78
2023/03/05 04:24:12;;;;;;;;;45.75;44.00;;;;;0.32;57.15;99186.91;5032285;28;8855;-77
2023/03/05 04:26:40;;;;;;;;;46.50;43.25;;;;;0.30;56.90;99177.41;5046756;28;8866;-79
2023/03/05 04:29:09;;;;;;;;;47.25;42.50;;;;;0.32;56.76;99175.72;5030607;28;8835;-76
2023/03/05 04:31:38;;;;;;;;;44.75;37.25;;;;;0.22;56.82;99177.31;5046707;28;9631;-77
2023/03/05 04:34:07;;;;;;;;;40.75;38.25;;;;;0.39;56.27;99175.81;5046913;28;8847;-77
2023/03/05 04:36:35;;;;;;;;;46.75;42.00;;;;;0.27;56.66;99170.47;5045693;28;8903;-78
2023/03/05 04:39:05;;;;;;;;;47.25;39.00;;;;;0.40;55.75;99168.94;5030596;28;8857;-77
2023/03/05 04:41:34;;;;;;;;;50.25;40.00;;;;;0.20;56.73;99179.00;5047128;28;8823;-79
2023/03/05 04:44:03;;;;;;;;;38.75;35.50;;;;;0.08;56.70;99177.97;5046950;28;8858;-75
2023/03/05 04:46:32;;;;;;;;;42.75;40.75;;;;;0.11;56.66;99169.38;5030568;28;8857;-76
2023/03/05 04:49:01;;;;;;;;;42.75;36.50;;;;;0.15;56.50;99176.31;5046936;28;8879;-77
2023/03/05 04:51:30;;;;;;;;;44.25;43.00;;;;;-0.09;57.00;99175.94;5035671;28;8864;-78
2023/03/05 04:53:59;;;;;;;;;48.75;42.25;;;;;0.00;56.63;99176.97;4980361;28;8863;-75
2023/03/05 04:56:29;;;;;;;;;47.00;42.50;;;;;-0.13;57.44;99177.59;5028613;28;8860;-77
2023/03/05 04:58:59;;;;;;;;;38.75;35.75;;;;;-0.12;57.15;99176.78;5064126;28;8868;-77
2023/03/05 05:01:27;;;;;;;;;47.75;42.00;;;;;-0.32;57.35;99184.19;5069683;28;9022;-76
2023/03/05 05:03:56;;;;;;;;;50.75;43.25;;;;;-0.22;57.31;99186.09;5052851;28;8976;-76
2023/03/05 05:06:25;;;;;;;;;46.00;41.25;;;;;-0.07;56.81;99184.59;5022476;28;8833;-76
2023/03/05 05:08:54;;;;;;;;;54.25;47.00;;;;;0.11;56.25;99184.88;5017678;28;8860;-75
2023/03/05 05:11:23;;;;;;;;;53.00;47.00;;;;;0.00;56.48;99184.72;5051354;28;8845;-75
2023/03/05 05:13:53;;;;;;;;;37.25;34.25;;;;;-0.10;56.75;99182.84;5066189;28;8857;-76
2023/03/05 05:16:22;;;;;;;;;34.75;29.50;;;;;-0.01;56.58;99188.16;5064050;28;8848;-76
2023/03/05 05:18:51;;;;;;;;;31.00;30.25;;;;;-0.04;56.47;99194.97;5064452;28;8857;-77
2023/03/05 05:21:20;;;;;;;;;34.75;29.75;;;;;-0.07;56.91;99190.63;5047669;28;8841;-76
2023/03/05 05:23:48;;;;;;;;;38.00;32.50;;;;;-0.07;56.61;99197.50;5060046;28;8886;-76
2023/03/05 05:26:17;;;;;;;;;32.25;32.00;;;;;-0.06;56.76;99191.50;5029626;28;8834;-76
2023/03/05 05:28:46;;;;;;;;;29.75;26.00;;;;;0.03;56.38;99202.84;5045720;28;8904;-76
2023/03/05 05:31:17;;;;;;;;;28.50;24.50;;;;;-0.05;56.52;99204.41;5029304;28;8869;-77
2023/03/05 05:33:46;;;;;;;;;67.00;53.00;;;;;0.02;56.65;99208.00;5045798;28;8992;-77
2023/03/05 05:36:21;;;;;;;;;35.25;27.00;;;;;-0.05;56.69;99208.72;5046030;28;9677;-76
2023/03/05 05:38:50;;;;;;;;;30.50;27.75;;;;;0.06;56.24;99205.47;5045315;28;8830;-77
2023/03/05 05:41:19;;;;;;;;;28.50;27.25;;;;;-0.05;56.47;99204.41;5046019;28;8880;-77
2023/03/05 05:43:48;;;;;;;;;25.50;20.75;;;;;-0.10;56.66;99213.84;5062699;28;8972;-76
2023/03/05 05:46:20;;;;;;;;;30.25;26.50;;;;;-0.03;56.65;99215.69;5062609;28;8830;-77
2023/03/05 05:48:49;;;;;;;;;29.00;23.00;;;;;0.08;56.16;99219.31;5029508;28;8857;-79
2023/03/05 05:51:21;;;;;;;;;28.50;26.25;;;;;0.19;56.02;99226.34;5029499;28;8893;-76
2023/03/05 05:53:51;;;;;;;;;30.50;27.00;;;;;0.16;55.77;99229.78;5029240;28;8881;-77
2023/03/05 05:56:20;;;;;;;;;22.50;16.50;;;;;0.28;55.50;99226.50;5045002;28;8864;-76
2023/03/05 05:58:49;;;;;;;;;29.00;24.75;;;;;0.30;55.17;99237.72;5048823;28;8869;-78
2023/03/05 06:01:23;;;;;;;;;30.00;26.50;;;;;0.22;55.16;99235.03;5048085;28;8895;-77
2023/03/05 06:03:52;;;;;;;;;29.50;27.00;;;;;0.34;54.87;99238.66;4997287;28;8964;-75
2023/03/05 06:06:23;;;;;;;;;30.25;26.75;;;;;0.22;54.89;99241.94;5063659;28;9725;-77
2023/03/05 06:08:53;;;;;;;;;29.75;27.25;;;;;0.44;54.58;99241.41;5030252;28;9630;-76
2023/03/05 06:11:22;;;;;;;;;22.75;21.00;;;;;0.33;54.93;99244.66;5045994;28;8829;-79
2023/03/05 06:13:51;;;;;;;;;21.75;20.25;;;;;0.30;54.64;99248.06;5063815;28;8844;-79
2023/03/05 06:16:24;;;;;;;;;25.50;23.75;;;;;0.49;54.26;99249.22;5063423;28;8849;-77
2023/03/05 06:18:54;;;;;;;;;35.25;28.75;;;;;0.75;54.41;99251.34;5062642;28;9019;-78
2023/03/05 06:21:23;;;;;;;;;30.75;29.25;;;;;0.83;54.09;99242.81;5048292;28;8845;-77
2023/03/05 06:23:52;;;;;;;;;33.00;30.75;;;;;0.80;54.73;99245.38;5049637;28;8876;-77
2023/03/05 06:26:22;;;;;;;;;53.25;45.00;;;;;0.97;55.19;99247.34;5033312;28;8860;-76
2023/03/05 06:28:52;;;;;;;;;49.00;42.25;;;;;1.20;54.52;99245.03;5050932;28;8865;-77
2023/03/05 06:31:24;;;;;;;;;36.00;35.75;;;;;1.23;54.34;99248.53;5034063;28;8864;-77
2023/03/05 06:33:55;;;;;;;;;39.25;36.00;;;;;1.01;54.65;99254.28;5050657;28;8868;-77
2023/03/05 06:36:25;;;;;;;;;42.75;40.00;;;;;1.02;54.72;99254.31;5032123;28;8848;-75
2023/03/05 06:38:55;;;;;;;;;39.00;37.33;;;;;1.06;54.80;99255.22;5048999;28;8895;-78
2023/03/05 06:41:26;;;;;;;;;42.00;38.50;;;;;1.42;54.10;99252.19;5049039;28;8873;-75
2023/03/05 06:43:55;;;;;;;;;41.25;36.75;;;;;2.14;53.19;99248.59;5047646;28;8853;-77
2023/03/05 06:46:28;;;;;;;;;44.50;37.50;;;;;2.53;51.86;99248.03;5048715;28;9065;-76
2023/03/05 06:48:58;;;;;;;;;60.75;46.75;;;;;2.51;51.25;99252.34;5015510;28;8868;-76
2023/03/05 06:51:29;;;;;;;;;49.75;42.25;;;;;2.38;51.28;99250.53;5048284;28;8992;-76
2023/03/05 06:54:01;;;;;;;;;62.75;51.25;;;;;2.51;50.39;99257.53;5048714;28;8896;-75
2023/03/05 06:56:30;;;;;;;;;40.00;34.25;;;;;2.63;49.47;99248.97;5048324;28;8880;-76
2023/03/05 06:58:59;;;;;;;;;38.25;33.75;;;;;2.48;51.00;99249.72;5048845;28;8872;-78
2023/03/05 07:01:29;;;;;;;;;42.25;36.50;;;;;2.33;50.93;99249.59;5047212;28;8860;-78
2023/03/05 07:03:59;;;;;;;;;33.50;29.00;;;;;2.50;49.85;99247.13;5032266;28;9006;-78
2023/03/05 07:06:31;;;;;;;;;38.00;34.00;;;;;2.64;49.31;99242.91;5048369;28;8861;-76
2023/03/05 07:09:00;;;;;;;;;34.00;33.50;;;;;2.64;48.66;99248.13;5066354;28;8869;-76
2023/03/05 07:11:30;;;;;;;;;34.75;29.00;;;;;2.42;49.10;99255.72;5015716;28;8908;-78
2023/03/05 07:13:59;;;;;;;;;30.00;24.75;;;;;2.39;49.56;99249.66;5050102;28;8848;-79
2023/03/05 07:16:31;;;;;;;;;34.25;32.75;;;;;3.24;48.17;99242.34;5050629;28;9579;-77
2023/03/05 07:19:02;;;;;;;;;31.25;28.50;;;;;3.27;47.55;99237.19;5044871;28;8854;-77
2023/03/05 07:21:32;;;;;;;;;31.75;31.00;;;;;3.64;47.13;99232.09;5045400;28;8934;-78
2023/03/05 07:24:02;;;;;;;;;35.00;32.75;;;;;3.50;47.77;99237.28;5060724;28;8881;-77
2023/03/05 07:26:33;;;;;;;;;33.75;32.50;;;;;3.82;47.08;99236.47;5034932;28;8852;-77
2023/03/05 07:29:02;;;;;;;;;29.00;28.75;;;;;3.92;45.53;99239.09;5050349;28;9615;-77
2023/03/05 07:31:32;;;;;;;;;30.75;30.75;;;;;3.34;46.98;99238.94;5050126;28;8933;-77
2023/03/05 07:34:03;;;;;;;;;36.75;32.50;;;;;3.35;47.12;99238.06;5049944;28;8962;-78
2023/03/05 07:36:33;;;;;;;;;33.50;31.00;;;;;3.19;47.23;99240.59;5049607;28;8833;-76
2023/03/05 07:39:03;;;;;;;;;37.75;34.00;;;;;3.23;47.47;99238.03;5047610;28;8942;-77
2023/03/05 07:41:32;;;;;;;;;32.25;29.00;;;;;3.41;46.99;99225.06;5050296;28;8845;-76
2023/03/05 07:44:01;;;;;;;;;28.75;28.50;;;;;3.55;46.70;99231.22;5049642;28;8864;-77
2023/03/05 07:46:33;;;;;;;;;43.00;40.50;;;;;2.91;48.28;99226.63;5049701;28;8852;-76
2023/03/05 07:49:02;;;;;;;;;40.50;31.00;;;;;3.43;47.05;99218.22;5048832;28;8856;-76
2023/03/05 07:51:31;;;;;;;;;39.00;33.75;;;;;3.97;46.77;99216.56;5049483;28;9660;-78
2023/03/05 07:54:00;;;;;;;;;31.75;28.50;;;;;4.48;45.14;99202.66;5065948;28;8877;-78
2023/03/05 07:56:31;;;;;;;;;33.00;30.25;;;;;4.39;44.47;99211.34;5048376;28;8878;-77
2023/03/05 07:59:00;;;;;;;;;35.25;28.00;;;;;3.35;47.45;99219.88;5048219;28;8884;-79
2023/03/05 08:01:30;;;;;;;;;31.20;27.00;;;;;3.83;45.67;99217.41;5046463;28;8899;-75
2023/03/05 08:04:00;;;;;;;;;23.00;20.25;;;;;4.35;45.72;99218.28;5049810;28;8915;-76
2023/03/05 08:06:29;;;;;;;;;27.75;25.25;;;;;4.72;44.84;99214.75;5031114;28;8865;-74
2023/03/05 08:08:59;;;;;;;;;30.50;30.00;;;;;3.63;46.75;99227.78;5050795;28;8861;-77
2023/03/05 08:11:28;;;;;;;;;5.75;1.75;;;;;3.64;46.46;99222.59;5060168;28;8930;-77
2023/03/05 08:13:58;;;;;;;;;30.75;28.75;;;;;4.27;45.64;99224.38;5047918;28;8845;-75
2023/03/05 08:16:28;;;;;;;;;24.50;24.25;;;;;3.94;45.58;99224.38;5013448;28;8841;-76
2023/03/05 08:18:58;;;;;;;;;26.20;25.40;;;;;4.05;45.25;99213.09;5014157;28;8995;-73
2023/03/05 08:21:32;;;;;;;;;26.00;24.60;;;;;3.82;45.93;99228.69;5080375;28;8876;-78
2023/03/05 08:24:03;;;;;;;;;29.80;23.80;;;;;4.41;44.68;99238.22;5046360;28;8868;-75
2023/03/05 08:26:34;;;;;;;;;35.00;25.00;;;;;3.82;45.06;99237.34;5081391;28;8891;-79
2023/03/05 08:29:04;;;;;;;;;32.75;29.00;;;;;3.56;46.93;99227.78;5030979;28;8884;-78
2023/03/05 08:31:34;;;;;;;;;29.00;27.50;;;;;2.76;49.27;99235.19;5049458;28;8853;-77
2023/03/05 08:34:03;;;;;;;;;25.75;23.75;;;;;3.20;48.27;99234.56;5065389;28;8867;-77
2023/03/05 08:36:34;;;;;;;;;28.00;26.00;;;;;2.94;48.54;99239.63;5058178;28;8962;-79
2023/03/05 08:39:05;;;;;;;;;26.75;21.25;;;;;3.61;46.93;99234.72;5031636;28;8841;-77
2023/03/05 08:41:34;;;;;;;;;23.00;22.25;;;;;3.85;47.42;99226.97;5015279;28;8865;-75
2023/03/05 08:44:04;;;;;;;;;32.25;29.25;;;;;4.04;47.09;99219.19;5017419;28;8865;-77
2023/03/05 08:46:33;;;;;;;;;34.25;33.50;;;;;3.64;48.06;99229.50;5028096;28;8945;-75
2023/03/05 08:49:02;;;;;;;;;29.25;27.75;;;;;3.27;49.62;99226.78;5048925;28;8891;-78
2023/03/05 08:51:31;;;;;;;;;26.25;25.25;;;;;3.98;46.91;99226.09;5025205;28;10112;-75
2023/03/05 08:54:05;;;;;;;;;33.25;25.75;;;;;3.57;47.99;99223.44;5005100;28;8847;-75
2023/03/05 08:56:35;;;;;;;;;31.75;25.50;;;;;4.26;46.50;99220.91;5002260;28;8912;-76
2023/03/05 08:59:04;;;;;;;;;34.00;28.50;;;;;4.05;46.57;99223.50;4994128;28;8955;-75
2023/03/05 09:01:33;;;;;;;;;31.50;27.50;;;;;3.31;48.44;99220.72;4946660;28;8853;-75
2023/03/05 09:04:02;;;;;;;;;33.25;32.25;;;;;4.28;46.62;99223.50;4915236;28;8869;-77
2023/03/05 09:06:33;;;;;;;;;33.00;29.75;;;;;3.90;46.85;99226.94;4931222;28;8865;-76
2023/03/05 09:09:03;;;;;;;;;23.20;16.40;;;;;3.94;46.81;99232.16;4953288;28;8990;-74
2023/03/05 09:11:34;;;;;;;;;32.25;30.75;;;;;3.48;47.64;99226.00;4980593;28;8868;-77
2023/03/05 09:14:03;;;;;;;;;34.50;26.00;;;;;2.71;49.33;99233.44;4956739;28;8854;-77
2023/03/05 09:16:33;;;;;;;;;30.75;29.75;;;;;3.07;49.45;99230.19;4930749;28;8870;-78
2023/03/05 09:19:01;;;;;;;;;32.25;28.25;;;;;2.40;51.30;99231.50;4931047;28;8876;-75
2023/03/05 09:21:31;;;;;;;;;30.00;29.00;;;;;2.64;50.92;99232.53;4946846;28;8984;-75
2023/03/05 09:24:00;;;;;;;;;34.50;30.75;;;;;3.14;50.18;99226.72;4947374;28;9019;-75
2023/03/05 09:26:31;;;;;;;;;29.75;29.00;;;;;3.91;48.62;99224.34;4969439;28;9668;-76
2023/03/05 09:28:59;;;;;;;;;31.50;31.25;;;;;3.97;47.80;99221.75;4985599;28;8881;-76
2023/03/05 09:31:28;;;;;;;;;37.50;32.00;;;;;4.62;46.94;99207.81;4967936;28;8874;-79
2023/03/05 09:33:57;;;;;;;;;34.00;29.00;;;;;4.08;47.26;99218.31;5008118;28;8945;-77
2023/03/05 09:36:31;;;;;;;;;30.00;29.00;;;;;3.80;48.26;99217.41;5008587;28;8881;-76
2023/03/05 09:38:59;;;;;;;;;35.75;31.75;;;;;3.60;48.33;99218.25;5021220;28;8832;-76
2023/03/05 09:41:44;;;;;;;;;32.50;31.50;;;;;3.39;49.23;99214.72;5050373;28;8855;-78
2023/03/05 09:44:25;;;;;;;;;37.50;32.50;;;;;3.29;49.93;99214.66;5047829;28;9020;-77
2023/03/05 09:46:56;;;;;;;;;39.50;35.50;;;;;2.68;51.33;99216.13;5046809;28;8871;-78
2023/03/05 09:49:33;;;;;;;;;29.50;28.00;;;;;3.04;50.79;99208.53;5042288;28;9648;-76
2023/03/05 09:52:11;;;;;;;;;34.25;31.25;;;;;3.18;50.23;99206.81;5026770;28;8931;-76
2023/03/05 09:54:43;;;;;;;;;30.75;28.00;;;;;4.09;49.23;99207.03;5032668;28;8946;-76
2023/03/05 09:57:17;;;;;;;;;36.00;32.75;;;;;3.90;49.18;99203.53;5043750;28;8954;-74
2023/03/05 09:59:51;;;;;;;;;28.50;28.00;;;;;3.43;50.14;99207.81;5032191;28;9015;-75
2023/03/05 10:02:26;;;;;;;;;31.00;29.75;;;;;3.81;50.00;99199.22;5059008;28;8855;-77
2023/03/05 10:05:00;;;;;;;;;30.25;26.75;;;;;3.03;51.42;99209.38;5047060;28;8869;-76
2023/03/05 10:07:31;;;;;;;;;23.50;20.00;;;;;3.37;50.75;99195.66;5049631;28;8872;-77
2023/03/05 10:10:02;;;;;;;;;27.50;25.00;;;;;3.77;49.19;99193.16;5062673;28;8868;-75
2023/03/05 10:12:41;;;;;;;;;32.25;31.00;;;;;3.75;49.73;99204.41;5065405;28;8856;-74
2023/03/05 10:15:15;;;;;;;;;30.50;26.50;;;;;4.12;48.29;99188.81;5053300;28;8852;-74
2023/03/05 10:18:05;;;;;;;;;33.25;32.25;;;;;3.71;48.70;99184.47;5053228;28;8849;-75
2023/03/05 10:20:48;;;;;;;;;43.00;38.00;;;;;3.91;48.85;99174.94;5065189;28;8861;-76
2023/03/05 10:23:26;;;;;;;;;34.50;32.00;;;;;4.08;48.51;99177.53;5045239;28;8975;-75
2023/03/05 10:26:20;;;;;;;;;35.50;34.50;;;;;4.46;47.98;99171.44;5075268;28;9538;-76
2023/03/05 10:29:02;;;;;;;;;19.50;15.75;;;;;3.89;49.58;99161.09;5045334;28;8977;-75
2023/03/05 10:31:40;;;;;;;;;40.50;31.25;;;;;4.80;48.25;99163.53;5047608;28;8861;-74
2023/03/05 10:34:32;;;;;;;;;33.25;30.25;;;;;5.33;46.40;99153.75;5065003;28;8865;-75
2023/03/05 10:37:21;;;;;;;;;37.00;32.50;;;;;5.24;44.99;99164.19;4997478;28;8852;-76
2023/03/05 10:39:59;;;;;;;;;37.00;33.50;;;;;4.47;47.39;99151.47;5000565;28;8855;-75
2023/03/05 10:42:36;;;;;;;;;39.50;35.00;;;;;4.91;45.93;99150.47;4984028;28;8847;-74
2023/03/05 10:45:15;;;;;;;;;26.75;26.25;;;;;4.28;47.23;99155.84;4983861;28;8883;-76
2023/03/05 10:47:49;;;;;;;;;44.00;34.25;;;;;4.07;48.05;99155.00;4987529;28;8868;-75
2023/03/05 10:50:22;;;;;;;;;30.50;27.75;;;;;4.50;47.45;99141.91;4989355;28;8832;-76
2023/03/05 10:53:03;;;;;;;;;37.50;35.50;;;;;5.06;46.30;99136.50;4967249;28;8870;-77
2023/03/05 10:55:32;;;;;;;;;36.50;30.00;;;;;4.99;46.14;99124.38;5004906;28;8860;-75
2023/03/05 10:58:02;;;;;;;;;34.50;30.00;;;;;4.51;46.49;99138.44;4990373;28;8877;-76
2023/03/05 11:00:33;;;;;;;;;29.25;24.75;;;;;4.83;45.41;99139.19;4987414;28;8870;-74
2023/03/05 11:03:04;;;;;;;;;28.00;28.00;;;;;4.13;46.27;99133.31;4955895;28;8884;-74
2023/03/05 11:05:41;;;;;;;;;37.25;34.00;;;;;4.35;47.44;99126.34;4955811;28;8876;-75
2023/03/05 11:08:30;;;;;;;;;33.50;30.75;;;;;4.83;46.39;99131.38;4939880;28;8874;-77
2023/03/05 11:11:12;;;;;;;;;29.50;25.25;;;;;4.78;44.68;99113.19;4986374;28;8990;-75
2023/03/05 11:13:57;;;;;;;;;29.50;25.50;;;;;4.79;43.74;99119.25;4998001;28;8862;-76
2023/03/05 11:16:29;;;;;;;;;22.75;20.50;;;;;5.27;43.99;99114.69;5046554;28;8881;-73
2023/03/05 11:19:18;;;;;;;;;30.80;29.80;;;;;5.12;45.49;99119.09;5047242;28;8980;-75
2023/03/05 11:22:13;;;;;;;;;35.00;28.50;;;;;4.78;46.37;99107.13;5047032;28;9738;-75
2023/03/05 11:24:42;;;;;;;;;28.50;27.50;;;;;4.72;46.22;99105.41;5030324;28;8870;-76
2023/03/05 11:27:29;;;;;;;;;28.75;27.00;;;;;5.75;43.59;99094.34;5012836;28;9109;-76
2023/03/05 11:29:59;;;;;;;;;26.00;24.50;;;;;6.18;42.22;99083.50;5048792;28;8956;-77
2023/03/05 11:32:30;;;;;;;;;27.75;21.75;;;;;5.78;43.22;99088.25;5031074;28;9698;-79
2023/03/05 11:34:59;;;;;;;;;30.50;29.75;;;;;5.81;42.72;99083.88;5028435;28;8891;-79
2023/03/05 11:37:30;;;;;;;;;32.00;30.75;;;;;6.12;41.28;99074.00;5049282;28;8848;-78
2023/03/05 11:40:22;;;;;;;;;27.75;27.25;;;;;7.07;39.89;99074.59;5049209;28;8863;-76
2023/03/05 11:42:57;;;;;;;;;28.25;26.25;;;;;7.52;39.11;99060.88;5049423;28;8852;-76
2023/03/05 11:45:28;;;;;;;;;26.20;20.20;;;;;7.43;37.34;99064.47;5031387;28;8864;-76
2023/03/05 11:48:06;;;;;;;;;23.60;23.00;;;;;8.10;36.26;99056.38;5065893;28;8852;-76
2023/03/05 11:50:37;;;;;;;;;20.40;17.40;;;;;8.08;34.45;99050.31;5067410;28;8887;-79
2023/03/05 11:53:13;;;;;;;;;26.00;23.60;;;;;6.81;37.94;99048.78;5013674;28;8861;-78